Time;durP1;ratioP1;P1;durP2;ratioP2;P2;SDS_P1;SDS_P2;PMS_P1;PMS_P2;Temp;Humidity;BMP_temperature;BMP_pressure;BME280_temperature;BME280_humidity;BME280_pressure;Samples;Min_cycle;Max_cycle;Signal;HPM_P1;HPM_P2
2022/08/06 00:00:13;;;;;;;9.45;6.88;;;20.80;99.90;;;;;;5167284;28;20037;-76
2022/08/06 00:02:44;;;;;;;7.22;5.63;;;20.90;99.90;;;;;;5165852;28;20049;-77
2022/08/06 00:05:15;;;;;;;7.15;5.95;;;20.80;99.90;;;;;;5167158;28;20434;-77
2022/08/06 00:07:50;;;;;;;9.07;6.10;;;20.80;99.90;;;;;;5167304;28;20363;-76
2022/08/06 00:10:25;;;;;;;7.13;6.07;;;20.70;99.90;;;;;;5164273;28;20399;-76
2022/08/06 00:13:02;;;;;;;7.80;6.68;;;20.70;99.90;;;;;;5167149;28;20117;-77
2022/08/06 00:15:43;;;;;;;9.23;6.55;;;20.70;99.90;;;;;;5163895;28;20042;-76
2022/08/06 00:18:13;;;;;;;8.15;6.72;;;20.60;99.90;;;;;;5165785;28;20097;-77
2022/08/06 00:20:44;;;;;;;8.32;5.97;;;20.80;99.90;;;;;;5166759;28;20022;-78
2022/08/06 00:23:15;;;;;;;7.65;6.18;;;20.70;99.90;;;;;;5166912;28;20026;-78
2022/08/06 00:25:46;;;;;;;7.63;5.95;;;20.70;99.90;;;;;;5166379;28;20544;-78
2022/08/06 00:28:17;;;;;;;7.07;5.72;;;20.50;99.90;;;;;;5165312;28;20478;-78
2022/08/06 00:30:48;;;;;;;8.38;6.18;;;20.60;99.90;;;;;;5166253;28;20506;-78
2022/08/06 00:33:19;;;;;;;7.03;5.47;;;20.70;99.90;;;;;;5165900;28;20026;-77
2022/08/06 00:35:50;;;;;;;7.30;6.00;;;20.60;99.90;;;;;;5166454;28;20034;-78
2022/08/06 00:38:20;;;;;;;8.52;6.40;;;20.60;99.90;;;;;;5166561;28;20038;-77
2022/08/06 00:40:52;;;;;;;6.88;5.45;;;20.50;99.90;;;;;;5166504;28;20027;-78
2022/08/06 00:43:23;;;;;;;7.20;5.68;;;20.60;99.90;;;;;;5166407;28;20034;-78
2022/08/06 00:45:54;;;;;;;7.53;5.97;;;20.60;99.90;;;;;;5166424;28;20376;-78
2022/08/06 00:48:25;;;;;;;8.07;5.80;;;20.50;99.90;;;;;;5166454;28;20034;-78
2022/08/06 00:50:56;;;;;;;8.75;6.47;;;20.50;99.90;;;;;;5166394;28;20022;-76
2022/08/06 00:53:27;;;;;;;6.78;5.65;;;20.50;99.90;;;;;;5164580;28;20489;-78
2022/08/06 00:55:58;;;;;;;8.05;6.03;;;20.50;99.90;;;;;;5166069;28;20038;-78
2022/08/06 00:58:29;;;;;;;7.60;6.00;;;20.50;99.90;;;;;;5166079;28;20475;-77
2022/08/06 01:01:00;;;;;;;7.57;5.88;;;20.40;99.90;;;;;;5166299;28;20033;-78
2022/08/06 01:03:30;;;;;;;7.63;6.35;;;20.30;99.90;;;;;;5166142;28;20054;-76
2022/08/06 01:06:01;;;;;;;8.15;6.15;;;20.20;99.90;;;;;;5165067;28;20026;-77
2022/08/06 01:08:32;;;;;;;6.93;6.10;;;20.30;99.90;;;;;;5166333;28;20108;-78
2022/08/06 01:11:03;;;;;;;6.72;5.55;;;20.20;99.90;;;;;;5166297;28;20030;-77
2022/08/06 01:13:34;;;;;;;7.65;6.20;;;20.30;99.90;;;;;;5173515;28;20109;-77
2022/08/06 01:16:31;;;;;;;8.20;5.72;;;20.40;99.90;;;;;;5186190;28;20156;-77
2022/08/06 01:19:39;;;;;;;6.78;5.63;;;20.40;99.90;;;;;;5178912;28;20506;-77
2022/08/06 01:23:00;;;;;;;6.25;5.40;;;20.30;99.90;;;;;;5186200;28;20029;-76
2022/08/06 01:25:48;;;;;;;8.93;5.93;;;20.40;99.90;;;;;;5185997;28;20037;-77
2022/08/06 01:28:31;;;;;;;7.47;6.35;;;20.30;99.90;;;;;;5186363;28;20030;-78
2022/08/06 01:31:07;;;;;;;7.15;5.43;;;20.20;99.90;;;;;;5186166;28;20230;-76
2022/08/06 01:33:44;;;;;;;6.13;5.25;;;20.20;99.90;;;;;;5186427;28;20505;-77
2022/08/06 01:36:22;;;;;;;7.55;5.70;;;20.20;99.90;;;;;;5185196;28;20056;-76
2022/08/06 01:38:56;;;;;;;6.32;5.40;;;20.30;99.90;;;;;;5186351;28;20121;-77
2022/08/06 01:41:41;;;;;;;5.30;4.75;;;20.20;99.90;;;;;;5186180;28;20030;-75
2022/08/06 01:44:16;;;;;;;5.63;4.75;;;20.20;99.90;;;;;;5187762;28;20029;-77
2022/08/06 01:46:51;;;;;;;6.57;5.22;;;20.10;99.90;;;;;;5190228;28;20048;-77
2022/08/06 01:49:29;;;;;;;5.78;4.53;;;20.00;99.90;;;;;;5190136;28;20839;-77
2022/08/06 01:52:01;;;;;;;7.15;5.35;;;20.00;99.90;;;;;;5190184;28;20032;-77
2022/08/06 01:54:37;;;;;;;6.50;5.57;;;20.10;99.90;;;;;;5189977;28;20018;-77
2022/08/06 01:57:10;;;;;;;7.47;5.15;;;19.90;99.90;;;;;;5189846;28;20381;-78
2022/08/06 01:59:46;;;;;;;7.93;5.32;;;20.10;99.90;;;;;;5190055;28;20053;-77
2022/08/06 02:02:21;;;;;;;6.32;4.78;;;20.00;99.90;;;;;;5189947;28;20034;-77
2022/08/06 02:04:57;;;;;;;7.30;5.18;;;19.90;99.90;;;;;;5189993;28;20033;-77
2022/08/06 02:07:32;;;;;;;8.18;5.63;;;20.00;99.90;;;;;;5189924;28;20026;-77
2022/08/06 02:10:05;;;;;;;7.68;5.53;;;19.90;99.90;;;;;;5188635;28;20034;-77
2022/08/06 02:12:39;;;;;;;8.00;5.40;;;20.00;99.90;;;;;;5189676;28;20022;-76
2022/08/06 02:15:14;;;;;;;6.10;4.85;;;20.00;99.90;;;;;;5188188;28;20038;-77
2022/08/06 02:17:50;;;;;;;6.10;4.97;;;19.90;99.90;;;;;;5188477;28;20030;-75
2022/08/06 02:20:28;;;;;;;8.13;5.03;;;19.90;99.90;;;;;;5189349;28;20033;-77
2022/08/06 02:23:02;;;;;;;7.53;5.88;;;19.90;99.90;;;;;;5189446;28;20026;-77
2022/08/06 02:25:35;;;;;;;7.40;6.13;;;19.80;99.90;;;;;;5189265;28;20104;-77
2022/08/06 02:28:07;;;;;;;10.25;5.88;;;19.70;99.90;;;;;;5188300;28;20426;-78
2022/08/06 02:30:42;;;;;;;8.55;5.90;;;19.70;99.90;;;;;;5187978;28;20029;-77
2022/08/06 02:33:13;;;;;;;8.65;5.97;;;19.70;99.90;;;;;;5189210;28;20026;-77
2022/08/06 02:35:52;;;;;;;7.97;6.28;;;19.70;99.90;;;;;;5189080;28;20056;-77
2022/08/06 02:38:32;;;;;;;7.60;6.05;;;19.80;99.90;;;;;;5188380;28;20374;-77
2022/08/06 02:41:32;;;;;;;7.68;5.93;;;19.80;99.90;;;;;;5189130;28;20030;-77
2022/08/06 02:44:11;;;;;;;7.07;4.90;;;19.90;99.90;;;;;;5166216;28;20053;-76
2022/08/06 02:46:58;;;;;;;6.65;5.10;;;19.90;99.90;;;;;;5187937;28;20030;-77
2022/08/06 02:49:36;;;;;;;6.90;5.70;;;20.00;99.90;;;;;;5189019;28;20030;-77
2022/08/06 02:52:25;;;;;;;6.53;5.22;;;20.00;99.90;;;;;;5187703;28;20049;-77
2022/08/06 02:55:11;;;;;;;7.65;5.70;;;20.00;99.90;;;;;;5186940;28;20033;-77
2022/08/06 02:57:55;;;;;;;7.80;5.80;;;20.10;99.90;;;;;;5187318;28;20513;-77
2022/08/06 03:00:29;;;;;;;8.25;5.70;;;20.00;99.90;;;;;;5188640;28;20032;-77
2022/08/06 03:03:02;;;;;;;8.35;6.10;;;19.90;99.90;;;;;;5188481;28;20022;-78
2022/08/06 03:05:35;;;;;;;6.47;5.30;;;19.90;99.90;;;;;;5188843;28;20064;-78
2022/08/06 03:08:09;;;;;;;7.07;5.10;;;20.00;99.90;;;;;;5188550;28;20109;-77
2022/08/06 03:10:41;;;;;;;7.63;5.95;;;19.80;99.90;;;;;;5188617;28;20061;-77
2022/08/06 03:13:13;;;;;;;8.05;6.07;;;19.80;99.90;;;;;;5187352;28;20022;-77
2022/08/06 03:15:45;;;;;;;7.35;5.55;;;19.80;99.90;;;;;;5188428;28;20061;-77
2022/08/06 03:18:18;;;;;;;8.13;6.00;;;19.80;99.90;;;;;;5187322;28;20025;-77
2022/08/06 03:20:50;;;;;;;8.45;6.07;;;20.00;99.90;;;;;;5186975;28;20026;-77
2022/08/06 03:23:22;;;;;;;8.43;6.35;;;20.00;99.90;;;;;;5188373;28;20018;-77
2022/08/06 03:25:54;;;;;;;7.50;6.20;;;19.90;99.90;;;;;;5186411;28;20045;-77
2022/08/06 03:28:26;;;;;;;7.68;5.68;;;20.00;99.90;;;;;;5186788;28;20852;-77
2022/08/06 04:03:31;;;;;;;8.48;6.10;;;20.40;99.90;;;;;;5266363;27;20392;-78
2022/08/06 04:06:02;;;;;;;7.63;5.80;;;20.80;99.90;;;;;;5264766;28;20028;-77
2022/08/06 04:08:34;;;;;;;7.78;6.28;;;21.00;99.90;;;;;;5266204;28;20024;-78
2022/08/06 04:11:06;;;;;;;6.60;5.68;;;21.00;99.90;;;;;;5265880;28;20414;-78
2022/08/06 04:13:38;;;;;;;7.93;6.35;;;20.90;99.90;;;;;;5265667;28;20108;-78
2022/08/06 04:16:12;;;;;;;7.90;5.95;;;21.00;99.90;;;;;;5265900;28;20021;-78
2022/08/06 04:18:44;;;;;;;8.05;5.93;;;21.00;99.90;;;;;;5265486;28;20028;-76
2022/08/06 04:21:19;;;;;;;10.25;6.28;;;21.10;99.90;;;;;;5266143;28;20024;-76
2022/08/06 04:23:51;;;;;;;7.05;5.60;;;21.10;99.90;;;;;;5265458;28;20028;-77
2022/08/06 04:26:24;;;;;;;8.30;6.78;;;21.20;99.90;;;;;;5265704;28;20029;-78
2022/08/06 04:28:56;;;;;;;7.95;6.63;;;21.20;99.90;;;;;;5265816;28;20028;-78
2022/08/06 04:31:29;;;;;;;8.13;6.35;;;21.40;99.90;;;;;;5265324;28;20024;-78
2022/08/06 04:34:00;;;;;;;9.68;6.53;;;21.60;99.90;;;;;;5265386;28;20035;-78
2022/08/06 04:36:32;;;;;;;7.72;5.75;;;21.70;99.90;;;;;;5265323;28;20074;-76
2022/08/06 04:39:03;;;;;;;8.90;6.78;;;22.00;99.90;;;;;;5248611;28;20091;-77
2022/08/06 04:41:34;;;;;;;9.00;7.28;;;22.00;99.90;;;;;;5244176;28;20442;-77
2022/08/06 04:44:05;;;;;;;6.88;6.13;;;22.20;99.90;;;;;;5244224;28;20102;-78
2022/08/06 04:46:36;;;;;;;9.13;6.65;;;22.50;99.90;;;;;;5244070;28;20024;-77
2022/08/06 04:49:08;;;;;;;7.13;6.00;;;22.70;99.90;;;;;;5242941;28;20384;-78
2022/08/06 04:51:39;;;;;;;8.32;6.57;;;22.90;99.90;;;;;;5243911;28;20484;-78
2022/08/06 04:54:09;;;;;;;6.93;5.40;;;23.30;99.90;;;;;;5243886;28;20078;-77
2022/08/06 04:56:42;;;;;;;7.28;5.30;;;23.60;99.90;;;;;;5242647;28;20025;-78
2022/08/06 04:59:13;;;;;;;6.28;5.05;;;23.60;99.90;;;;;;5249095;28;20111;-78
2022/08/06 05:01:44;;;;;;;5.70;4.50;;;23.80;99.90;;;;;;5264502;28;20381;-77
2022/08/06 05:04:15;;;;;;;5.38;4.05;;;23.70;99.90;;;;;;5251700;28;20050;-77
2022/08/06 05:07:12;;;;;;;4.47;4.07;;;23.80;99.90;;;;;;5250800;28;20027;-77
2022/08/06 05:09:43;;;;;;;4.85;3.33;;;23.90;99.90;;;;;;5250896;28;20047;-77
2022/08/06 05:12:30;;;;;;;5.05;3.70;;;24.10;99.90;;;;;;5250622;28;20040;-77
2022/08/06 05:15:11;;;;;;;4.63;3.65;;;24.10;99.90;;;;;;5250814;28;20025;-78
2022/08/06 05:17:48;;;;;;;4.45;3.70;;;24.20;99.90;;;;;;5250833;28;20427;-78
2022/08/06 05:20:20;;;;;;;5.45;3.33;;;24.30;99.90;;;;;;5250579;28;20055;-78
2022/08/06 05:22:55;;;;;;;4.10;3.45;;;24.30;99.90;;;;;;5250488;28;20066;-78
2022/08/06 05:25:26;;;;;;;4.18;3.30;;;24.30;99.90;;;;;;5250471;28;20033;-78
2022/08/06 05:27:57;;;;;;;4.93;3.75;;;24.70;99.90;;;;;;5250489;28;20427;-77
2022/08/06 05:30:28;;;;;;;11.27;3.65;;;24.70;99.90;;;;;;5250210;28;20044;-76
2022/08/06 05:32:59;;;;;;;6.20;3.55;;;24.70;99.90;;;;;;5250166;28;20369;-78
2022/08/06 05:35:29;;;;;;;14.88;5.50;;;25.00;99.90;;;;;;5250328;28;20020;-78
2022/08/06 05:38:00;;;;;;;3.90;3.17;;;25.30;99.90;;;;;;5250520;28;20100;-77
2022/08/06 05:40:35;;;;;;;3.90;3.47;;;25.50;99.90;;;;;;5250282;28;20024;-77
2022/08/06 05:43:05;;;;;;;4.70;3.40;;;25.50;99.90;;;;;;5250226;28;20414;-78
2022/08/06 05:45:40;;;;;;;3.75;3.28;;;25.30;99.90;;;;;;5250259;28;20027;-77
2022/08/06 05:48:13;;;;;;;4.60;3.28;;;25.30;99.90;;;;;;5250370;28;20075;-76
2022/08/06 05:50:52;;;;;;;3.33;2.45;;;25.40;99.90;;;;;;5250124;28;20496;-76
2022/08/06 05:53:40;;;;;;;3.00;2.70;;;25.70;99.90;;;;;;5249940;28;20028;-77
2022/08/06 05:56:17;;;;;;;3.13;2.78;;;25.60;99.90;;;;;;5249974;28;20017;-76
2022/08/06 05:59:01;;;;;;;6.22;3.65;;;25.40;99.90;;;;;;5249995;28;20434;-76
2022/08/06 06:01:34;;;;;;;4.65;3.45;;;25.50;99.90;;;;;;5249569;28;20044;-77
2022/08/06 06:04:05;;;;;;;5.13;3.05;;;25.90;99.90;;;;;;5249850;28;20097;-77
2022/08/06 06:06:36;;;;;;;5.05;3.33;;;25.80;99.90;;;;;;5249786;28;20376;-77
2022/08/06 06:09:07;;;;;;;4.93;3.53;;;25.60;99.90;;;;;;5249807;28;20032;-77
2022/08/06 06:11:38;;;;;;;3.85;3.50;;;25.80;99.90;;;;;;5249590;28;20036;-77
2022/08/06 06:14:33;;;;;;;7.85;4.10;;;25.90;99.90;;;;;;5247914;28;20064;-77
2022/08/06 06:17:30;;;;;;;5.05;3.78;;;26.50;99.90;;;;;;5249740;28;20472;-76
2022/08/06 06:20:13;;;;;;;5.90;3.78;;;26.40;99.90;;;;;;5249713;28;20064;-77
2022/08/06 06:23:13;;;;;;;5.57;3.65;;;26.50;99.90;;;;;;5249519;28;20021;-76
2022/08/06 06:26:09;;;;;;;4.18;3.63;;;26.50;99.90;;;;;;5248274;28;20024;-76
2022/08/06 06:29:01;;;;;;;4.15;3.35;;;26.60;99.90;;;;;;5243771;28;20549;-76
2022/08/06 06:32:06;;;;;;;5.10;3.60;;;26.50;99.90;;;;;;5243659;28;20036;-77
2022/08/06 06:35:01;;;;;;;5.10;3.42;;;26.50;99.90;;;;;;5230914;28;20036;-76
2022/08/06 06:37:56;;;;;;;4.97;3.33;;;26.20;99.90;;;;;;5233021;28;20499;-76
2022/08/06 06:40:39;;;;;;;5.07;3.45;;;26.00;99.90;;;;;;5228172;28;20033;-76
2022/08/06 06:43:53;;;;;;;4.25;3.35;;;25.90;99.90;;;;;;5230487;28;20093;-77
2022/08/06 06:46:34;;;;;;;4.57;3.38;;;26.00;99.90;;;;;;5237802;28;20066;-77
2022/08/06 06:49:12;;;;;;;4.22;3.72;;;26.50;99.90;;;;;;5229908;28;20155;-77
2022/08/06 06:51:59;;;;;;;4.20;3.20;;;27.10;99.90;;;;;;5227920;28;20123;-77
2022/08/06 06:54:37;;;;;;;5.40;3.25;;;26.60;99.90;;;;;;5227789;28;20514;-77
2022/08/06 06:57:12;;;;;;;4.75;3.42;;;26.30;99.90;;;;;;5227876;28;20032;-77
2022/08/06 06:59:47;;;;;;;5.22;3.60;;;26.20;99.90;;;;;;5227980;28;20471;-77
2022/08/06 07:02:28;;;;;;;5.53;3.55;;;26.20;99.90;;;;;;5239837;28;20045;-77
2022/08/06 07:05:02;;;;;;;5.28;3.33;;;26.10;99.90;;;;;;5248426;28;20028;-76
2022/08/06 07:07:35;;;;;;;5.03;3.53;;;26.10;99.90;;;;;;5248149;28;20028;-76
2022/08/06 07:10:09;;;;;;;4.35;3.30;;;26.10;99.90;;;;;;5248260;28;20364;-77
2022/08/06 07:12:42;;;;;;;4.60;3.47;;;26.30;99.90;;;;;;5248011;28;20046;-77
2022/08/06 07:15:15;;;;;;;4.57;3.45;;;27.00;99.90;;;;;;5248229;28;20361;-77
2022/08/06 07:17:52;;;;;;;3.78;3.17;;;27.20;99.90;;;;;;5248225;28;20040;-76
2022/08/06 07:20:28;;;;;;;5.00;3.42;;;26.70;99.90;;;;;;5248064;28;20422;-77
2022/08/06 07:23:02;;;;;;;3.53;2.97;;;26.30;99.90;;;;;;5246992;28;20071;-76
2022/08/06 07:25:44;;;;;;;4.38;3.25;;;26.50;99.90;;;;;;5247781;28;20035;-77
2022/08/06 07:28:16;;;;;;;3.90;2.97;;;26.40;99.90;;;;;;5263472;28;20028;-77
2022/08/06 07:30:48;;;;;;;4.15;2.78;;;26.20;99.90;;;;;;5247809;28;20103;-75
2022/08/06 07:33:19;;;;;;;4.47;3.22;;;26.10;99.90;;;;;;5247776;28;20029;-76
2022/08/06 07:35:51;;;;;;;4.38;3.17;;;26.10;99.90;;;;;;5247771;28;20020;-77
2022/08/06 07:38:26;;;;;;;4.15;3.30;;;26.60;99.90;;;;;;5247628;28;20032;-76
2022/08/06 07:41:02;;;;;;;4.43;2.90;;;27.10;99.90;;;;;;5247740;28;20119;-76
2022/08/06 07:43:38;;;;;;;3.90;2.92;;;26.60;99.90;;;;;;5247934;28;20025;-76
2022/08/06 07:46:12;;;;;;;4.22;2.83;;;26.90;99.90;;;;;;5247686;28;20074;-76
2022/08/06 07:48:57;;;;;;;5.20;3.00;;;26.50;99.90;;;;;;5247750;28;20381;-77
2022/08/06 07:51:31;;;;;;;7.38;3.63;;;26.80;99.90;;;;;;5247648;28;20064;-76
2022/08/06 07:54:05;;;;;;;4.55;3.00;;;26.60;99.90;;;;;;5247401;28;20136;-77
2022/08/06 07:56:40;;;;;;;5.20;3.75;;;26.60;99.90;;;;;;5247478;28;20021;-76
2022/08/06 07:59:12;;;;;;;4.30;3.40;;;26.60;99.90;;;;;;5247353;28;20082;-77
2022/08/06 08:01:43;;;;;;;3.60;2.72;;;26.40;99.90;;;;;;5247397;28;20388;-76
2022/08/06 08:07:05;;;;;;;7.80;3.25;;;26.80;99.90;;;;;;5247491;28;20091;-71
2022/08/06 08:09:36;;;;;;;3.35;2.80;;;27.40;99.90;;;;;;5247174;28;20075;-73
2022/08/06 08:12:10;;;;;;;5.30;2.90;;;27.70;99.90;;;;;;5247107;28;20047;-73
2022/08/06 08:14:43;;;;;;;3.72;2.88;;;27.60;99.90;;;;;;5246999;28;20023;-76
2022/08/06 08:17:15;;;;;;;3.25;2.72;;;27.40;99.90;;;;;;5247039;28;20539;-71
2022/08/06 08:19:45;;;;;;;4.93;3.03;;;27.80;99.90;;;;;;5247083;28;20025;-72
2022/08/06 08:22:19;;;;;;;4.22;2.95;;;27.70;99.90;;;;;;5246894;28;20447;-78
2022/08/06 08:24:50;;;;;;;3.88;3.00;;;28.00;99.90;;;;;;5247150;28;20025;-72
2022/08/06 08:27:21;;;;;;;2.80;2.42;;;28.40;99.90;;;;;;5246966;28;20048;-75
2022/08/06 08:29:52;;;;;;;3.30;2.63;;;28.40;99.90;;;;;;5247134;28;20100;-73
2022/08/06 08:32:23;;;;;;;4.70;2.88;;;27.80;99.90;;;;;;5246572;28;20517;-70
2022/08/06 08:34:54;;;;;;;3.83;3.00;;;27.60;99.90;;;;;;5234827;28;20079;-71
2022/08/06 08:37:25;;;;;;;4.35;3.28;;;27.20;99.90;;;;;;5234094;28;20029;-76
2022/08/06 08:39:56;;;;;;;4.43;3.38;;;26.90;99.90;;;;;;5236860;28;20021;-76
2022/08/06 08:43:01;;;;;;;5.00;3.10;;;27.10;99.90;;;;;;5239521;28;20031;-70
2022/08/06 08:45:34;;;;;;;3.80;3.08;;;27.30;99.90;;;;;;5231939;28;20186;-72
2022/08/06 08:48:06;;;;;;;3.78;2.60;;;27.10;99.90;;;;;;5239796;28;20020;-75
2022/08/06 08:50:40;;;;;;;3.25;2.80;;;27.50;99.90;;;;;;5239514;28;20396;-75
2022/08/06 08:53:14;;;;;;;3.50;2.72;;;27.00;99.90;;;;;;5237813;28;20060;-71
2022/08/06 08:55:46;;;;;;;3.30;2.78;;;27.40;99.90;;;;;;5236866;28;20021;-75
2022/08/06 08:58:18;;;;;;;4.78;2.67;;;27.20;99.90;;;;;;5229688;28;20111;-75
2022/08/06 09:00:49;;;;;;;3.03;2.42;;;27.30;99.90;;;;;;5228463;28;20040;-72
2022/08/06 09:03:20;;;;;;;5.20;2.90;;;27.40;99.90;;;;;;5229404;28;20060;-73
2022/08/06 09:05:50;;;;;;;3.40;2.90;;;28.00;99.90;;;;;;5229593;28;20017;-72
2022/08/06 09:08:22;;;;;;;2.97;2.42;;;27.50;99.90;;;;;;5230385;28;20033;-72
2022/08/06 09:10:53;;;;;;;5.00;2.65;;;27.30;99.90;;;;;;5255120;28;20023;-73
2022/08/06 09:13:28;;;;;;;2.75;2.22;;;27.60;99.90;;;;;;5247906;28;20040;-73
2022/08/06 09:16:00;;;;;;;3.88;2.50;;;28.00;99.90;;;;;;5244519;28;20110;-75
2022/08/06 09:18:31;;;;;;;2.92;2.28;;;27.60;99.90;;;;;;5230995;28;20025;-75
2022/08/06 09:21:03;;;;;;;3.00;2.47;;;27.90;99.90;;;;;;5229420;28;20032;-76
2022/08/06 09:23:37;;;;;;;3.60;2.70;;;27.80;99.90;;;;;;5229261;28;20024;-77
2022/08/06 09:26:08;;;;;;;3.47;2.70;;;27.60;99.90;;;;;;5229014;28;20035;-76
2022/08/06 09:28:41;;;;;;;2.80;2.30;;;27.80;99.90;;;;;;5237338;28;20013;-76
2022/08/06 09:31:17;;;;;;;3.45;2.45;;;27.40;99.90;;;;;;5238362;28;20064;-73
2022/08/06 09:33:56;;;;;;;4.60;2.10;;;27.50;99.90;;;;;;5246877;28;20032;-76
2022/08/06 09:36:27;;;;;;;3.20;2.40;;;27.60;99.90;;;;;;5249973;28;20024;-72
2022/08/06 09:38:59;;;;;;;3.58;2.75;;;27.60;99.90;;;;;;5248310;28;20025;-73
2022/08/06 09:41:31;;;;;;;2.53;2.20;;;27.80;99.90;;;;;;5249506;28;20375;-76
2022/08/06 09:44:11;;;;;;;3.50;2.17;;;28.00;99.90;;;;;;5249661;28;20035;-75
2022/08/06 09:46:47;;;;;;;2.92;2.45;;;28.10;99.90;;;;;;5249378;28;20078;-72
2022/08/06 09:49:19;;;;;;;3.92;2.22;;;28.50;99.90;;;;;;5249223;28;20051;-76
2022/08/06 09:51:50;;;;;;;3.50;2.20;;;28.60;99.90;;;;;;5249172;28;20444;-76
2022/08/06 09:54:21;;;;;;;2.92;2.03;;;28.50;99.90;;;;;;5249258;28;20095;-76
2022/08/06 09:56:58;;;;;;;2.17;1.90;;;28.40;99.90;;;;;;5249104;28;20111;-73
2022/08/06 09:59:40;;;;;;;3.22;2.08;;;28.50;99.90;;;;;;5249169;28;20044;-69
2022/08/06 10:02:17;;;;;;;2.17;1.90;;;28.50;99.90;;;;;;5248723;28;20049;-75
2022/08/06 10:04:49;;;;;;;5.40;2.10;;;28.50;99.90;;;;;;5249246;28;20420;-71
2022/08/06 10:07:30;;;;;;;3.38;2.70;;;28.10;99.90;;;;;;5238948;28;20013;-76
2022/08/06 10:10:01;;;;;;;3.92;3.00;;;28.10;99.90;;;;;;5232434;28;20048;-73
2022/08/06 10:12:32;;;;;;;2.90;2.47;;;28.60;99.90;;;;;;5230704;28;20033;-76
2022/08/06 10:15:04;;;;;;;4.22;2.53;;;28.40;99.90;;;;;;5233374;28;20021;-77
2022/08/06 10:17:35;;;;;;;4.70;2.35;;;28.80;99.90;;;;;;5233342;28;20036;-76
2022/08/06 10:20:10;;;;;;;3.95;3.17;;;28.70;99.90;;;;;;5231860;28;20021;-76
2022/08/06 10:22:56;;;;;;;3.67;2.25;;;28.70;99.90;;;;;;5228196;28;20111;-76
2022/08/06 10:25:30;;;;;;;2.63;1.77;;;29.00;99.90;;;;;;5228000;28;20488;-76
2022/08/06 10:28:01;;;;;;;3.85;2.17;;;29.50;99.90;;;;;;5227862;28;20029;-70
2022/08/06 10:30:33;;;;;;;4.32;2.33;;;29.80;99.90;;;;;;5227858;28;20056;-77
2022/08/06 10:33:07;;;;;;;3.92;2.10;;;29.60;99.90;;;;;;5227626;28;20041;-76
2022/08/06 10:35:42;;;;;;;2.25;1.88;;;29.20;99.90;;;;;;5227915;28;20021;-76
2022/08/06 10:38:18;;;;;;;3.67;2.17;;;28.90;99.90;;;;;;5227869;28;20025;-76
2022/08/06 10:40:52;;;;;;;3.08;1.80;;;29.20;99.90;;;;;;5227741;28;20036;-76
2022/08/06 10:43:25;;;;;;;2.75;2.00;;;29.80;99.90;;;;;;5227642;28;20028;-70
2022/08/06 10:45:56;;;;;;;2.70;2.05;;;29.60;99.90;;;;;;5227583;28;20040;-76
2022/08/06 10:48:27;;;;;;;2.85;2.28;;;29.30;99.90;;;;;;5228357;28;20028;-74
2022/08/06 10:50:58;;;;;;;3.05;2.38;;;29.20;99.90;;;;;;5227567;28;20032;-75
2022/08/06 10:53:31;;;;;;;3.80;2.92;;;29.40;99.90;;;;;;5227310;28;20036;-76
2022/08/06 10:56:05;;;;;;;2.75;1.83;;;29.90;99.90;;;;;;5229991;28;20024;-70
2022/08/06 10:58:37;;;;;;;2.22;1.83;;;29.70;99.90;;;;;;5238994;28;20048;-75
2022/08/06 11:01:15;;;;;;;3.05;2.30;;;29.80;99.90;;;;;;5232655;28;20468;-75
2022/08/06 11:03:58;;;;;;;4.60;2.40;;;29.40;99.90;;;;;;5247982;28;20031;-71
2022/08/06 11:06:31;;;;;;;1.60;1.50;;;29.60;99.90;;;;;;5246030;28;20479;-70
2022/08/06 11:09:35;;;;;;;3.42;2.28;;;28.90;99.90;;;;;;5246945;28;20020;-75
2022/08/06 11:12:25;;;;;;;3.55;2.20;;;29.30;99.90;;;;;;5247860;28;20071;-76
2022/08/06 11:14:57;;;;;;;3.03;2.30;;;29.40;99.90;;;;;;5247224;28;20027;-75
2022/08/06 11:17:53;;;;;;;2.85;2.55;;;28.90;99.90;;;;;;5247713;28;20064;-72
2022/08/06 11:20:32;;;;;;;2.25;2.03;;;28.30;99.90;;;;;;5247770;28;20025;-74
2022/08/06 11:23:05;;;;;;;3.17;2.65;;;28.70;99.90;;;;;;5247681;28;20112;-76
2022/08/06 11:25:45;;;;;;;2.40;1.98;;;29.30;99.90;;;;;;5246565;28;20046;-75
2022/08/06 11:28:20;;;;;;;2.60;2.35;;;29.20;99.90;;;;;;5247700;28;20024;-76
2022/08/06 11:30:56;;;;;;;2.03;1.80;;;29.20;99.90;;;;;;5247528;28;20380;-75
2022/08/06 11:33:32;;;;;;;3.03;2.53;;;28.50;99.90;;;;;;5247647;28;20052;-75
2022/08/06 11:36:12;;;;;;;2.63;2.35;;;28.60;99.90;;;;;;5247667;28;20025;-75
2022/08/06 11:38:46;;;;;;;5.28;3.78;;;28.50;99.90;;;;;;5247559;28;20025;-76
2022/08/06 11:41:22;;;;;;;16.15;8.38;;;28.60;99.90;;;;;;5247382;28;20033;-73
2022/08/06 11:43:53;;;;;;;5.20;3.90;;;28.70;99.90;;;;;;5247408;28;20021;-75
2022/08/06 11:46:28;;;;;;;3.03;2.28;;;28.30;99.90;;;;;;5242205;28;20513;-75
2022/08/06 11:48:58;;;;;;;3.53;2.17;;;28.50;99.90;;;;;;5247169;28;20033;-76
2022/08/06 11:51:49;;;;;;;3.20;2.50;;;28.10;99.90;;;;;;5247148;28;20047;-72
2022/08/06 11:54:23;;;;;;;2.47;2.10;;;29.20;99.90;;;;;;5247165;28;20036;-76
2022/08/06 11:57:06;;;;;;;3.05;2.60;;;28.80;99.90;;;;;;5247173;28;20025;-73
2022/08/06 11:59:44;;;;;;;3.15;2.70;;;29.00;99.90;;;;;;5245385;28;20078;-78
2022/08/06 12:02:36;;;;;;;3.42;2.60;;;28.40;99.90;;;;;;5239618;28;20044;-72
2022/08/06 12:05:27;;;;;;;3.85;3.00;;;28.30;99.90;;;;;;5227345;28;20044;-70
2022/08/06 12:08:19;;;;;;;3.83;2.55;;;28.40;99.90;;;;;;5229874;28;20021;-77
2022/08/06 12:11:24;;;;;;;4.28;2.72;;;28.70;99.90;;;;;;5235243;28;20032;-77
2022/08/06 12:13:56;;;;;;;2.95;2.47;;;28.70;99.90;;;;;;5248947;28;20111;-72
2022/08/06 12:16:34;;;;;;;2.72;2.50;;;29.10;99.90;;;;;;5251236;28;20048;-76
2022/08/06 12:19:12;;;;;;;3.40;2.67;;;29.20;99.90;;;;;;5251186;28;20032;-72
2022/08/06 12:21:43;;;;;;;3.35;2.85;;;28.40;99.90;;;;;;5251124;28;20052;-77
2022/08/06 12:24:13;;;;;;;3.38;2.40;;;28.50;99.90;;;;;;5251113;28;20499;-77
2022/08/06 12:26:44;;;;;;;4.68;2.47;;;27.90;99.90;;;;;;5251051;28;20033;-76
2022/08/06 12:29:16;;;;;;;3.25;2.60;;;28.70;99.90;;;;;;5251063;28;20021;-78
2022/08/06 12:31:47;;;;;;;2.83;2.28;;;29.10;99.90;;;;;;5250766;28;20062;-75
2022/08/06 12:34:29;;;;;;;2.95;2.20;;;28.70;99.90;;;;;;5250821;28;20107;-70
2022/08/06 12:37:00;;;;;;;4.05;2.20;;;29.30;99.90;;;;;;5250958;28;20048;-77
2022/08/06 12:42:29;;;;;;;3.13;2.33;;;28.90;99.90;;;;;;5250921;28;20051;-73
2022/08/06 12:45:00;;;;;;;3.33;2.53;;;29.50;99.90;;;;;;5250574;28;20024;-78
2022/08/06 12:47:31;;;;;;;2.90;2.33;;;29.00;99.90;;;;;;5250592;28;20032;-73
2022/08/06 12:50:15;;;;;;;3.67;2.78;;;28.60;99.90;;;;;;5250637;28;20029;-70
2022/08/06 12:53:09;;;;;;;3.58;2.30;;;28.60;99.90;;;;;;5250316;28;20032;-74
2022/08/06 12:55:48;;;;;;;3.30;2.00;;;28.70;99.90;;;;;;5250389;28;20464;-72
2022/08/06 12:58:24;;;;;;;3.90;2.33;;;29.20;99.90;;;;;;5250422;28;20033;-71
2022/08/06 13:00:57;;;;;;;3.40;2.40;;;29.50;99.90;;;;;;5250381;28;20030;-71
2022/08/06 13:03:31;;;;;;;3.10;2.53;;;28.70;99.90;;;;;;5250313;28;20041;-77
2022/08/06 13:06:04;;;;;;;4.63;2.35;;;29.00;99.90;;;;;;5250249;28;20025;-77
2022/08/06 13:08:36;;;;;;;3.35;2.22;;;28.70;99.90;;;;;;5250198;28;20028;-77
2022/08/06 13:11:07;;;;;;;3.60;2.40;;;28.00;99.90;;;;;;5250042;28;20024;-75
2022/08/06 13:13:49;;;;;;;3.28;2.28;;;27.90;99.90;;;;;;5250191;28;20039;-77
2022/08/06 13:16:20;;;;;;;3.83;2.58;;;28.90;99.90;;;;;;5250291;28;20371;-75
2022/08/06 13:19:10;;;;;;;2.72;2.03;;;28.70;99.90;;;;;;5250169;28;20036;-75
2022/08/06 13:21:42;;;;;;;3.05;2.60;;;28.30;99.90;;;;;;5250089;28;20028;-74
2022/08/06 13:24:26;;;;;;;4.40;2.60;;;28.10;99.90;;;;;;5249500;28;20478;-70
2022/08/06 13:26:57;;;;;;;3.42;2.40;;;28.40;99.90;;;;;;5250061;28;20032;-70
2022/08/06 13:29:28;;;;;;;3.28;2.50;;;28.70;99.90;;;;;;5250009;28;20371;-71
2022/08/06 13:32:02;;;;;;;2.60;2.17;;;28.40;99.90;;;;;;5249655;28;20147;-73
2022/08/06 13:34:50;;;;;;;3.35;2.47;;;28.90;99.90;;;;;;5249731;28;20012;-70
2022/08/06 13:37:53;;;;;;;2.58;2.10;;;28.80;99.90;;;;;;5249802;28;20419;-78
2022/08/06 13:40:46;;;;;;;2.80;2.33;;;27.70;99.90;;;;;;5248345;28;20093;-71
2022/08/06 13:43:18;;;;;;;3.13;2.00;;;28.10;99.90;;;;;;5249891;28;20512;-72
2022/08/06 13:45:53;;;;;;;3.22;2.53;;;27.80;99.90;;;;;;5249603;28;20381;-74
2022/08/06 13:48:24;;;;;;;3.30;2.08;;;28.20;99.90;;;;;;5249474;28;20028;-73
2022/08/06 13:50:55;;;;;;;2.70;2.08;;;28.20;99.90;;;;;;5249453;28;20103;-75
2022/08/06 13:53:26;;;;;;;3.75;2.20;;;28.50;99.90;;;;;;5249284;28;20037;-77
2022/08/06 13:55:56;;;;;;;2.55;2.10;;;28.70;99.90;;;;;;5249294;28;20032;-75
2022/08/06 13:58:27;;;;;;;2.90;2.28;;;29.20;99.90;;;;;;5249323;28;20033;-77
2022/08/06 14:00:58;;;;;;;3.15;2.47;;;29.10;99.90;;;;;;5248977;28;20020;-71
2022/08/06 14:03:30;;;;;;;3.55;2.08;;;28.50;99.90;;;;;;5249061;28;20064;-77
2022/08/06 14:06:01;;;;;;;3.25;2.50;;;28.20;99.90;;;;;;5249188;28;20444;-75
2022/08/06 14:08:31;;;;;;;2.97;2.00;;;29.00;99.90;;;;;;5249142;28;20119;-77